Madison, WI (53718)

10:15 AM CDT on September 28, 2016 (GMT -0500)
Weybridge | | Change Station

Elev 984 ft 43.18 °N, 89.28 °W | Updated 11 seconds ago

Overcast
Overcast
53.8 °F
Feels Like 53.8 °F
N
0.9
Wind Variable Wind from North
Gusts 2.5 mph

Today
High -- | Low -- °F
--% Chance of Precip.
Yesterday
High -- | Low -- °F
Precip. -- in
Pressure 29.95 in
Visibility 10.0 miles
Clouds Mostly Cloudy 1100 ft
Overcast 2900 ft
Dew Point 53.1 °F
Humidity 97%
Rainfall 0.05 in
Snow Depth Not available.
6:52 AM 6:43 PM
Waning Crescent, 5% visible
METAR KMSN 281453Z 35007KT 10SM BKN011 OVC029 12/10 A2994 RMK AO2 SLP140 60000 T01170100 53023
Pressure 29.95 in
Visibility 10.0 miles
Clouds Mostly Cloudy 1100 ft
Overcast 2900 ft
Dew Point 53.1 °F
Humidity 97%
Rainfall 0.05 in
Snow Depth Not available.
6:52 AM 6:43 PM
Waning Crescent, 5% visible
METAR KMSN 281453Z 35007KT 10SM BKN011 OVC029 12/10 A2994 RMK AO2 SLP140 60000 T01170100 53023

10-Day Weather Forecast

Almanac

Astronomy

Sep. 28, 2016 Rise Set
Actual Time
Civil Twilight
Nautical Twilight
Astronomical Twilight
Moon
Length of Visible Light
Length of Day
Tomorrow will be .
, % of the Moon is Illuminated

Today's Extremes

State Highs State Lows

Community

WunderPhotos

Upload Photos

1,942,280 photos uploaded!

WunderBlog® & News

Nearby

Air Quality

  Air Quality AQ Index Pollutant
Not available.

Snow Depth

Station Depth Elevation

Earthquake Activity

City Distance Mag. Time & Date
Minimum magnitude displayed is 2.5.

Coastal Water Temperatures

Place Temperature

Stations

Nearby Weather Stations

Station Location Temp. Windchill Dew Point Humidity Wind Precip. Elev Updated Type
                   

Watches & Warnings

There are currently no watches in effect.